Europa — C6QK8 — position and weather

sailwx.info

Track history (hours):
 
Tides and Currents Weather Stations Pressure Air Temp Water Temp Dewpoint Dewpoint Depression Visibility Wind Speed Wind Dir Waves Ship Positions

Europa

Operator: Hapag-Lloyd Container Line

Last reported at 2017-Mar-20 08:25 UTC. Time now 2017-Mar-24 19:56 UTC.
Position N 22°54' E 120°03'.

Length 199 m; draft 6 m.

Type: Passenger vessel. MMSI: 308007000.

Date/timePositionNaut miles runAvg speedWind from/ knotsBaromVisibWave heightAir tempDewpointWater temp
2017-Mar-20 08:25N 22°54' E 120°03'1517.5
2017-Mar-20 07:33N 22°41' E 120°11'7 6.8
2017-Mar-20 06:33N 22°37' E 120°17'0 0.0
2017-Mar-20 05:33N 22°37' E 120°17'0 0.0
2017-Mar-20 04:33N 22°37' E 120°17'0 0.0
2017-Mar-20 03:33N 22°37' E 120°17'0 0.0
2017-Mar-20 02:33N 22°37' E 120°17'0 0.0
2017-Mar-20 01:30N 22°37' E 120°17'0 0.0
2017-Mar-20 00:33N 22°37' E 120°17'3 3.1
2017-Mar-19 23:34N 22°37' E 120°14'1818.4
2017-Mar-19 22:34N 22°31' E 119°55'31917.7
2017-Mar-19 04:34N 22°18' E 114°10'0 0.2
2017-Mar-19 03:32N 22°18' E 114°10'0 0.0
2017-Mar-19 02:29N 22°18' E 114°10'0 0.0
2017-Mar-19 01:32N 22°18' E 114°10'0 0.0
2017-Mar-19 00:32N 22°18' E 114°10'0 0.0
2017-Mar-18 23:32N 22°18' E 114°10'0 0.0
2017-Mar-18 22:32N 22°18' E 114°10'0 0.0
2017-Mar-18 21:32N 22°18' E 114°10'0 0.0
2017-Mar-18 20:32N 22°18' E 114°10'0 0.0
2017-Mar-18 19:32N 22°18' E 114°10'0 0.0
2017-Mar-18 18:32N 22°18' E 114°10'0 0.0
2017-Mar-18 17:32N 22°18' E 114°10'0 0.0
2017-Mar-18 16:32N 22°18' E 114°10'0 0.0
2017-Mar-18 15:32N 22°18' E 114°10'0 0.0
2017-Mar-18 14:32N 22°18' E 114°10'0 0.0
2017-Mar-18 13:32N 22°18' E 114°10'0 0.0
2017-Mar-18 12:32N 22°18' E 114°10'0 0.0
2017-Mar-18 11:32N 22°18' E 114°10'0 0.0
2017-Mar-18 10:32N 22°18' E 114°10'0 0.0
2017-Mar-18 09:32N 22°18' E 114°10'0 0.0
2017-Mar-18 08:32N 22°18' E 114°10'0 0.0
2017-Mar-18 07:32N 22°18' E 114°10'0 0.0
2017-Mar-18 06:32N 22°18' E 114°10'0 0.0
2017-Mar-18 05:32N 22°18' E 114°10'0 0.0
2017-Mar-18 04:32N 22°18' E 114°10'0 0.0
2017-Mar-18 03:32N 22°18' E 114°10'0 0.0
2017-Mar-18 02:32N 22°18' E 114°10'0 0.0
2017-Mar-18 01:32N 22°18' E 114°10'0 0.0
2017-Mar-18 00:32N 22°18' E 114°10'0 0.0
2017-Mar-17 23:29N 22°18' E 114°10'0 0.0
2017-Mar-17 22:32N 22°18' E 114°10'0 0.0
2017-Mar-17 21:32N 22°18' E 114°10'0 0.0
2017-Mar-17 20:32N 22°18' E 114°10'0 0.0
2017-Mar-17 19:32N 22°18' E 114°10'0 0.0
2017-Mar-17 18:32N 22°18' E 114°10'0 0.0
2017-Mar-17 17:32N 22°18' E 114°10'0 0.0
2017-Mar-17 16:32N 22°18' E 114°10'0 0.0
2017-Mar-17 15:32N 22°18' E 114°10'0 0.0
2017-Mar-17 14:32N 22°18' E 114°10'0 0.0
2017-Mar-17 13:29N 22°18' E 114°10'0 0.0
2017-Mar-17 12:32N 22°18' E 114°10'0 0.0
2017-Mar-17 11:23N 22°18' E 114°10'0 0.0
2017-Mar-17 10:32N 22°18' E 114°10'0 0.0
2017-Mar-17 09:33N 22°18' E 114°10'0 0.0
2017-Mar-17 08:33N 22°18' E 114°10'0 0.0
2017-Mar-17 07:33N 22°18' E 114°10'0 0.0
2017-Mar-17 06:33N 22°18' E 114°10'1 0.8
2017-Mar-17 05:34N 22°18' E 114°11'  
Track history (hours):
 
Tides and Currents Weather Stations Pressure Air Temp Water Temp Dewpoint Dewpoint Depression Visibility Wind Speed Wind Dir Waves Ship Positions

Europa

Operator: Hapag-Lloyd Container Line

Last reported at 2017-Mar-20 08:25 UTC. Time now 2017-Mar-24 19:56 UTC.
Position N 22°54' E 120°03'.

Length 199 m; draft 6 m.

Type: Passenger vessel. MMSI: 308007000.

Date/timePositionNaut miles runAvg speedWind from/ knotsBaromVisibWave heightAir tempDewpointWater temp
2017-Mar-20 08:25N 22°54' E 120°03'1517.5
2017-Mar-20 07:33N 22°41' E 120°11'7 6.8
2017-Mar-20 06:33N 22°37' E 120°17'0 0.0
2017-Mar-20 05:33N 22°37' E 120°17'0 0.0
2017-Mar-20 04:33N 22°37' E 120°17'0 0.0
2017-Mar-20 03:33N 22°37' E 120°17'0 0.0
2017-Mar-20 02:33N 22°37' E 120°17'0 0.0
2017-Mar-20 01:30N 22°37' E 120°17'0 0.0
2017-Mar-20 00:33N 22°37' E 120°17'3 3.1
2017-Mar-19 23:34N 22°37' E 120°14'1818.4
2017-Mar-19 22:34N 22°31' E 119°55'31917.7
2017-Mar-19 04:34N 22°18' E 114°10'0 0.2
2017-Mar-19 03:32N 22°18' E 114°10'0 0.0
2017-Mar-19 02:29N 22°18' E 114°10'0 0.0
2017-Mar-19 01:32N 22°18' E 114°10'0 0.0
2017-Mar-19 00:32N 22°18' E 114°10'0 0.0
2017-Mar-18 23:32N 22°18' E 114°10'0 0.0
2017-Mar-18 22:32N 22°18' E 114°10'0 0.0
2017-Mar-18 21:32N 22°18' E 114°10'0 0.0
2017-Mar-18 20:32N 22°18' E 114°10'0 0.0
2017-Mar-18 19:32N 22°18' E 114°10'0 0.0
2017-Mar-18 18:32N 22°18' E 114°10'0 0.0
2017-Mar-18 17:32N 22°18' E 114°10'0 0.0
2017-Mar-18 16:32N 22°18' E 114°10'0 0.0
2017-Mar-18 15:32N 22°18' E 114°10'0 0.0
2017-Mar-18 14:32N 22°18' E 114°10'0 0.0
2017-Mar-18 13:32N 22°18' E 114°10'0 0.0
2017-Mar-18 12:32N 22°18' E 114°10'0 0.0
2017-Mar-18 11:32N 22°18' E 114°10'0 0.0
2017-Mar-18 10:32N 22°18' E 114°10'0 0.0
2017-Mar-18 09:32N 22°18' E 114°10'0 0.0
2017-Mar-18 08:32N 22°18' E 114°10'0 0.0
2017-Mar-18 07:32N 22°18' E 114°10'0 0.0
2017-Mar-18 06:32N 22°18' E 114°10'0 0.0
2017-Mar-18 05:32N 22°18' E 114°10'0 0.0
2017-Mar-18 04:32N 22°18' E 114°10'0 0.0
2017-Mar-18 03:32N 22°18' E 114°10'0 0.0
2017-Mar-18 02:32N 22°18' E 114°10'0 0.0
2017-Mar-18 01:32N 22°18' E 114°10'0 0.0
2017-Mar-18 00:32N 22°18' E 114°10'0 0.0
2017-Mar-17 23:29N 22°18' E 114°10'0 0.0
2017-Mar-17 22:32N 22°18' E 114°10'0 0.0
2017-Mar-17 21:32N 22°18' E 114°10'0 0.0
2017-Mar-17 20:32N 22°18' E 114°10'0 0.0
2017-Mar-17 19:32N 22°18' E 114°10'0 0.0
2017-Mar-17 18:32N 22°18' E 114°10'0 0.0
2017-Mar-17 17:32N 22°18' E 114°10'0 0.0
2017-Mar-17 16:32N 22°18' E 114°10'0 0.0
2017-Mar-17 15:32N 22°18' E 114°10'0 0.0
2017-Mar-17 14:32N 22°18' E 114°10'0 0.0
2017-Mar-17 13:29N 22°18' E 114°10'0 0.0
2017-Mar-17 12:32N 22°18' E 114°10'0 0.0
2017-Mar-17 11:23N 22°18' E 114°10'0 0.0
2017-Mar-17 10:32N 22°18' E 114°10'0 0.0
2017-Mar-17 09:33N 22°18' E 114°10'0 0.0
2017-Mar-17 08:33N 22°18' E 114°10'0 0.0
2017-Mar-17 07:33N 22°18' E 114°10'0 0.0
2017-Mar-17 06:33N 22°18' E 114°10'1 0.8
2017-Mar-17 05:34N 22°18' E 114°11'  

Dump ship's entire track history